createdAt,value
2019-05-22T00:00:03.399Z,188.60
2019-05-22T00:01:03.426Z,194.80
2019-05-22T00:02:03.386Z,202.30
2019-05-22T00:03:03.782Z,208.70
2019-05-22T00:04:03.353Z,212.50
2019-05-22T00:05:03.342Z,225.10
2019-05-22T00:06:03.352Z,213.30
2019-05-22T00:07:03.333Z,202.40
2019-05-22T00:08:03.307Z,226.90
2019-05-22T00:09:03.294Z,254.00
2019-05-22T00:10:03.293Z,281.10
2019-05-22T00:11:03.341Z,247.80
2019-05-22T00:12:03.266Z,230.30
2019-05-22T00:13:03.272Z,240.40
2019-05-22T00:14:03.238Z,245.80
2019-05-22T00:15:03.529Z,234.10
2019-05-22T00:16:03.241Z,247.30
2019-05-22T00:17:03.205Z,264.80
2019-05-22T00:18:03.202Z,221.70
2019-05-22T00:19:03.192Z,214.80
2019-05-22T00:20:03.189Z,175.70
2019-05-22T00:21:03.330Z,139.50
2019-05-22T00:22:03.154Z,141.20
2019-05-22T00:23:03.141Z,130.40
2019-05-22T00:24:03.129Z,138.90
2019-05-22T00:25:03.119Z,123.40
2019-05-22T00:26:03.136Z,133.70
2019-05-22T00:27:03.098Z,140.10
2019-05-22T00:28:03.085Z,138.40
2019-05-22T00:29:03.083Z,129.30
2019-05-22T00:30:03.066Z,131.60
2019-05-22T00:31:03.095Z,133.30
2019-05-22T00:32:03.042Z,142.50
2019-05-22T00:33:03.033Z,150.90
2019-05-22T00:34:03.019Z,158.70
2019-05-22T00:35:03.016Z,145.20
2019-05-22T00:36:03.025Z,139.50
2019-05-22T00:37:02.988Z,134.20
2019-05-22T00:38:03.043Z,130.10
2019-05-22T00:39:02.964Z,132.00
2019-05-22T00:40:02.952Z,139.50
2019-05-22T00:41:02.972Z,145.00
2019-05-22T00:42:02.930Z,147.10
2019-05-22T00:43:06.948Z,151.40
2019-05-22T00:44:03.911Z,141.00
2019-05-22T00:45:02.895Z,163.40
2019-05-22T00:46:02.887Z,189.20
2019-05-22T00:47:02.922Z,196.30
2019-05-22T00:48:02.862Z,216.20
2019-05-22T00:49:02.853Z,235.60
2019-05-22T00:50:02.855Z,247.30
2019-05-22T00:51:02.829Z,263.90
2019-05-22T00:52:02.840Z,308.30
2019-05-22T00:53:02.809Z,325.40
2019-05-22T00:54:02.797Z,283.60
2019-05-22T00:55:02.783Z,321.60
2019-05-22T00:56:02.787Z,312.50
2019-05-22T00:57:02.788Z,353.80
2019-05-22T00:58:02.753Z,352.70
2019-05-22T00:59:02.740Z,288.70
2019-05-22T01:00:02.742Z,325.40
2019-05-22T01:01:02.718Z,289.90
2019-05-22T01:02:02.751Z,336.90
2019-05-22T01:03:02.793Z,296.50
2019-05-22T01:04:02.747Z,290.60
2019-05-22T01:05:02.674Z,311.80
2019-05-22T01:06:02.661Z,292.80
2019-05-22T01:07:02.686Z,309.00
2019-05-22T01:08:02.641Z,293.60
2019-05-22T01:09:02.664Z,270.50
2019-05-22T01:10:03.644Z,287.10
2019-05-22T01:11:02.607Z,266.40
2019-05-22T01:12:03.156Z,275.60
2019-05-22T01:13:02.584Z,277.50
2019-05-22T01:14:02.578Z,253.80
2019-05-22T01:15:03.202Z,250.10
2019-05-22T01:16:02.552Z,268.80
2019-05-22T01:17:02.566Z,250.90
2019-05-22T01:18:02.531Z,159.00
2019-05-22T01:19:02.518Z,163.70
2019-05-22T01:20:02.508Z,178.10
2019-05-22T01:21:02.521Z,180.50
2019-05-22T01:22:02.552Z,185.00
2019-05-22T01:23:02.486Z,189.20
2019-05-22T01:24:02.462Z,184.50
2019-05-22T01:25:02.451Z,198.80
2019-05-22T01:26:02.440Z,230.20
2019-05-22T01:27:02.438Z,210.70
2019-05-22T01:28:02.456Z,189.00
2019-05-22T01:29:02.409Z,173.50
2019-05-22T01:30:02.471Z,171.10
2019-05-22T01:31:02.387Z,170.50
2019-05-22T01:32:02.373Z,184.60
2019-05-22T01:33:02.387Z,167.80
2019-05-22T01:34:02.397Z,155.10
2019-05-22T01:35:02.342Z,153.20
2019-05-22T01:36:02.330Z,153.10
2019-05-22T01:37:02.317Z,143.70
2019-05-22T01:38:02.333Z,128.40
2019-05-22T01:39:02.325Z,136.40
2019-05-22T01:40:02.318Z,128.60
2019-05-22T01:41:02.274Z,151.40
2019-05-22T01:42:02.266Z,131.60
2019-05-22T01:43:02.278Z,130.50
2019-05-22T01:44:02.240Z,137.00
2019-05-22T01:45:06.465Z,156.00
2019-05-22T01:46:02.232Z,132.40
2019-05-22T01:47:02.210Z,131.30
2019-05-22T01:48:02.227Z,121.80
2019-05-22T01:49:02.190Z,118.00
2019-05-22T01:50:02.214Z,115.90
2019-05-22T01:51:02.176Z,131.60
2019-05-22T01:52:02.178Z,129.10
2019-05-22T01:53:02.216Z,139.90
2019-05-22T01:54:02.133Z,166.00
2019-05-22T01:55:02.124Z,173.50
2019-05-22T01:56:02.161Z,175.60
2019-05-22T01:57:02.097Z,202.80
2019-05-22T01:58:02.118Z,181.30
2019-05-22T01:59:02.076Z,264.70
2019-05-22T02:00:02.065Z,223.10
2019-05-22T02:01:02.107Z,208.00
2019-05-22T02:02:02.056Z,187.20
2019-05-22T02:03:02.055Z,165.70
2019-05-22T02:04:02.034Z,167.40
2019-05-22T02:05:02.009Z,174.00
2019-05-22T02:06:02.000Z,192.80
2019-05-22T02:07:01.992Z,203.30
2019-05-22T02:08:02.001Z,214.50
2019-05-22T02:09:01.966Z,214.60
2019-05-22T02:10:02.509Z,231.30
2019-05-22T02:11:01.958Z,198.80
2019-05-22T02:12:01.935Z,198.10
2019-05-22T02:13:01.961Z,198.80
2019-05-22T02:14:01.912Z,206.40
2019-05-22T02:15:01.922Z,229.00
2019-05-22T02:16:01.943Z,225.60
2019-05-22T02:17:01.891Z,222.50
2019-05-22T02:18:01.866Z,225.20
2019-05-22T02:19:01.914Z,214.20
2019-05-22T02:20:01.864Z,209.10
2019-05-22T02:21:01.838Z,245.10
2019-05-22T02:22:01.955Z,232.20
2019-05-22T02:23:01.820Z,202.60
2019-05-22T02:24:01.823Z,217.10
2019-05-22T02:25:01.858Z,216.30
2019-05-22T02:26:01.778Z,224.40
2019-05-22T02:27:02.207Z,249.90
2019-05-22T02:28:01.759Z,212.40
2019-05-22T02:29:01.826Z,222.30
2019-05-22T02:30:01.739Z,242.60
2019-05-22T02:31:01.722Z,180.40
2019-05-22T02:32:01.726Z,186.30
2019-05-22T02:33:01.712Z,207.80
2019-05-22T02:34:01.717Z,186.20
2019-05-22T02:35:01.841Z,183.60
2019-05-22T02:36:01.671Z,167.90
2019-05-22T02:37:01.660Z,175.30
2019-05-22T02:38:01.651Z,177.80
2019-05-22T02:39:01.663Z,165.20
2019-05-22T02:40:01.646Z,138.70
2019-05-22T02:41:01.617Z,114.60
2019-05-22T02:42:01.612Z,119.20
2019-05-22T02:43:01.599Z,127.60
2019-05-22T02:44:01.624Z,110.00
2019-05-22T02:45:01.574Z,138.80
2019-05-22T02:46:01.569Z,151.80
2019-05-22T02:47:17.941Z,152.70
2019-05-22T02:48:02.539Z,126.50
2019-05-22T02:49:01.562Z,124.10
2019-05-22T02:50:01.652Z,123.60
2019-05-22T02:51:01.504Z,127.00
2019-05-22T02:52:01.511Z,141.50
2019-05-22T02:53:01.483Z,120.30
2019-05-22T02:54:01.477Z,155.20
2019-05-22T02:55:01.487Z,126.60
2019-05-22T02:56:01.448Z,121.90
2019-05-22T02:57:01.439Z,128.50
2019-05-22T02:58:01.433Z,121.70
2019-05-22T02:59:01.425Z,132.60
2019-05-22T03:00:01.590Z,123.70
2019-05-22T03:01:01.416Z,133.60
2019-05-22T03:02:01.384Z,134.50
2019-05-22T03:03:01.374Z,135.30
2019-05-22T03:04:01.365Z,134.30
2019-05-22T03:05:01.373Z,146.40
2019-05-22T03:06:01.355Z,142.70
2019-05-22T03:07:01.330Z,145.00
2019-05-22T03:08:01.318Z,168.00
2019-05-22T03:09:01.342Z,174.00
2019-05-22T03:10:01.336Z,162.30
2019-05-22T03:11:01.285Z,136.20
2019-05-22T03:12:01.287Z,158.90
2019-05-22T03:13:01.264Z,163.40
2019-05-22T03:14:01.255Z,149.90
2019-05-22T03:15:01.273Z,170.50
2019-05-22T03:16:01.232Z,175.40
2019-05-22T03:17:01.219Z,154.30
2019-05-22T03:18:01.218Z,146.30
2019-05-22T03:19:08.851Z,151.60
2019-05-22T03:20:02.211Z,142.30
2019-05-22T03:21:01.179Z,119.30
2019-05-22T03:22:01.166Z,103.70
2019-05-22T03:23:01.170Z,106.30
2019-05-22T03:24:01.158Z,113.20
2019-05-22T03:25:01.157Z,121.00
2019-05-22T03:26:01.124Z,122.50
2019-05-22T03:27:01.122Z,129.40
2019-05-22T03:28:01.105Z,121.90
2019-05-22T03:29:01.090Z,111.30
2019-05-22T03:30:01.122Z,122.40
2019-05-22T03:31:01.072Z,114.20
2019-05-22T03:32:01.058Z,121.50
2019-05-22T03:33:01.103Z,104.90
2019-05-22T03:34:01.042Z,105.70
2019-05-22T03:35:01.049Z,96.30
2019-05-22T03:36:01.028Z,98.90
2019-05-22T03:37:01.005Z,94.00
2019-05-22T03:38:01.006Z,96.90
2019-05-22T03:39:00.984Z,93.80
2019-05-22T03:40:00.999Z,115.50
2019-05-22T03:41:00.976Z,105.90
2019-05-22T03:42:00.956Z,106.50
2019-05-22T03:43:00.941Z,115.60
2019-05-22T03:44:00.932Z,106.20
2019-05-22T03:45:00.915Z,102.90
2019-05-22T03:46:00.946Z,89.90
2019-05-22T03:47:00.896Z,91.60
2019-05-22T03:48:00.898Z,100.20
2019-05-22T03:49:00.891Z,94.50
2019-05-22T03:50:00.871Z,98.10
2019-05-22T03:51:00.877Z,96.20
2019-05-22T03:52:00.841Z,101.30
2019-05-22T03:53:00.829Z,101.90
2019-05-22T03:54:00.823Z,100.80
2019-05-22T03:55:00.809Z,89.80
2019-05-22T03:56:00.841Z,93.60
2019-05-22T03:57:00.788Z,88.10
2019-05-22T03:58:00.779Z,85.80
2019-05-22T03:59:00.763Z,100.90
2019-05-22T04:00:00.755Z,81.10
2019-05-22T04:01:00.772Z,92.00
2019-05-22T04:02:00.745Z,101.80
2019-05-22T04:03:00.738Z,82.10
2019-05-22T04:04:00.717Z,84.80
2019-05-22T04:05:00.714Z,86.80
2019-05-22T04:06:00.710Z,100.70
2019-05-22T04:07:00.676Z,102.40
2019-05-22T04:08:00.689Z,104.80
2019-05-22T04:09:00.657Z,103.00
2019-05-22T04:10:00.648Z,108.60
2019-05-22T04:11:00.658Z,116.90
2019-05-22T04:12:00.622Z,90.60
2019-05-22T04:13:00.612Z,106.80
2019-05-22T04:14:00.616Z,110.90
2019-05-22T04:15:00.587Z,120.00
2019-05-22T04:16:00.614Z,92.20
2019-05-22T04:17:00.573Z,102.10
2019-05-22T04:18:00.560Z,92.60
2019-05-22T04:19:00.547Z,91.60
2019-05-22T04:20:00.552Z,96.00
2019-05-22T04:21:00.547Z,99.40
2019-05-22T04:22:00.513Z,81.60
2019-05-22T04:23:00.527Z,90.20
2019-05-22T04:24:00.492Z,82.90
2019-05-22T04:25:00.480Z,88.30
2019-05-22T04:26:00.551Z,92.90
2019-05-22T04:27:00.486Z,85.70
2019-05-22T04:28:00.453Z,86.50
2019-05-22T04:29:00.440Z,82.40
2019-05-22T04:30:00.429Z,102.00
2019-05-22T04:31:00.418Z,104.80
2019-05-22T04:32:00.450Z,114.30
2019-05-22T04:33:00.397Z,120.50
2019-05-22T04:34:00.383Z,107.60
2019-05-22T04:35:00.381Z,108.80
2019-05-22T04:36:00.364Z,92.10
2019-05-22T04:37:00.376Z,99.90
2019-05-22T04:38:00.349Z,104.70
2019-05-22T04:39:00.327Z,118.40
2019-05-22T04:40:00.315Z,105.50
2019-05-22T04:41:00.310Z,114.60
2019-05-22T04:42:00.322Z,119.20
2019-05-22T04:43:00.293Z,127.30
2019-05-22T04:44:00.309Z,115.50
2019-05-22T04:45:00.301Z,119.50
2019-05-22T04:46:00.270Z,132.20
2019-05-22T04:47:00.267Z,141.10
2019-05-22T04:48:00.230Z,141.60
2019-05-22T04:49:00.225Z,120.90
2019-05-22T04:50:07.473Z,134.30
2019-05-22T04:51:01.194Z,129.00
2019-05-22T04:52:00.208Z,125.40
2019-05-22T04:53:00.178Z,125.50
2019-05-22T04:54:00.165Z,120.30
2019-05-22T04:55:00.154Z,123.90
2019-05-22T04:56:00.150Z,105.50
2019-05-22T04:57:00.157Z,131.00
2019-05-22T04:58:00.124Z,124.70
2019-05-22T04:59:00.111Z,122.20
2019-05-22T05:00:00.112Z,115.20
2019-05-22T05:01:00.089Z,118.70
2019-05-22T05:02:00.111Z,104.40
2019-05-22T05:03:00.065Z,107.60
2019-05-22T05:04:00.059Z,114.90
2019-05-22T05:05:00.087Z,109.10
2019-05-22T05:06:00.035Z,117.00
2019-05-22T05:07:00.222Z,95.80
2019-05-22T05:08:00.039Z,89.90
2019-05-22T05:09:00.000Z,93.60
2019-05-22T05:09:59.992Z,87.80
2019-05-22T05:10:59.977Z,89.20
2019-05-22T05:11:59.972Z,80.30
2019-05-22T05:12:59.979Z,77.70
2019-05-22T05:13:59.970Z,79.90
2019-05-22T05:14:59.947Z,91.50
2019-05-22T05:15:59.922Z,88.70
2019-05-22T05:16:59.914Z,91.10
2019-05-22T05:17:59.924Z,75.20
2019-05-22T05:18:59.892Z,81.10
2019-05-22T05:19:59.878Z,74.90
2019-05-22T05:20:59.890Z,72.20
2019-05-22T05:21:59.864Z,71.80
2019-05-22T05:22:59.869Z,65.40
2019-05-22T05:23:59.838Z,60.50
2019-05-22T05:24:59.827Z,64.10
2019-05-22T05:25:59.816Z,70.20
2019-05-22T05:26:59.806Z,69.30
2019-05-22T05:27:59.850Z,69.70
2019-05-22T05:28:59.781Z,64.70
2019-05-22T05:29:59.776Z,65.20
2019-05-22T05:30:59.758Z,60.50
2019-05-22T05:31:59.751Z,63.20
2019-05-22T05:32:59.760Z,62.10
2019-05-22T05:33:59.745Z,57.40
2019-05-22T05:34:59.726Z,61.10
2019-05-22T05:35:59.767Z,60.80
2019-05-22T05:36:59.701Z,65.40
2019-05-22T05:37:59.719Z,63.70
2019-05-22T05:38:59.675Z,61.10
2019-05-22T05:39:59.702Z,72.40
2019-05-22T05:40:59.664Z,67.90
2019-05-22T05:41:59.639Z,68.50
2019-05-22T05:42:59.655Z,68.40
2019-05-22T05:43:59.619Z,72.30
2019-05-22T05:44:59.609Z,68.40
2019-05-22T05:45:59.598Z,65.00
2019-05-22T05:46:59.601Z,68.40
2019-05-22T05:47:59.603Z,65.60
2019-05-22T05:48:59.565Z,72.60
2019-05-22T05:49:59.551Z,76.20
2019-05-22T05:50:59.552Z,65.50
2019-05-22T05:51:59.537Z,60.80
2019-05-22T05:52:59.544Z,64.80
2019-05-22T05:53:59.541Z,67.50
2019-05-22T05:54:59.498Z,65.90
2019-05-22T05:55:59.487Z,67.90
2019-05-22T05:56:59.476Z,68.70
2019-05-22T05:57:59.487Z,64.70
2019-05-22T05:58:59.467Z,63.30
2019-05-22T05:59:59.442Z,59.90
2019-05-22T06:00:59.443Z,65.80
2019-05-22T06:01:59.433Z,67.20
2019-05-22T06:02:59.455Z,69.90
2019-05-22T06:03:59.401Z,65.00
2019-05-22T06:04:59.397Z,70.20
2019-05-22T06:05:59.379Z,65.60
2019-05-22T06:07:00.730Z,74.30
2019-05-22T06:07:59.354Z,74.90
2019-05-22T06:08:59.408Z,73.70
2019-05-22T06:09:59.331Z,65.30
2019-05-22T06:10:59.354Z,67.80
2019-05-22T06:11:59.309Z,72.70
2019-05-22T06:12:59.297Z,72.50
2019-05-22T06:13:59.312Z,73.50
2019-05-22T06:14:59.291Z,71.30
2019-05-22T06:15:59.266Z,75.80
2019-05-22T06:16:59.277Z,66.80
2019-05-22T06:17:59.243Z,62.90
2019-05-22T06:18:59.259Z,62.10
2019-05-22T06:19:59.222Z,69.90
2019-05-22T06:21:03.743Z,67.30
2019-05-22T06:22:00.205Z,64.30
2019-05-22T06:22:59.210Z,69.00
2019-05-22T06:23:59.200Z,63.80
2019-05-22T06:24:59.383Z,64.10
2019-05-22T06:25:59.158Z,62.00
2019-05-22T06:26:59.147Z,65.10
2019-05-22T06:27:59.139Z,62.50
2019-05-22T06:28:59.155Z,65.00
2019-05-22T06:29:59.122Z,66.30
2019-05-22T06:30:59.100Z,65.10
2019-05-22T06:31:59.090Z,62.00
2019-05-22T06:32:59.080Z,65.10
2019-05-22T06:33:59.098Z,65.10
2019-05-22T06:34:59.816Z,61.40
2019-05-22T06:35:59.048Z,60.80
2019-05-22T06:36:59.242Z,62.30
2019-05-22T06:37:59.025Z,65.30
2019-05-22T06:38:59.038Z,63.40
2019-05-22T06:39:59.005Z,65.00
2019-05-22T06:40:59.119Z,61.40
2019-05-22T06:41:58.981Z,72.60
2019-05-22T06:42:58.971Z,62.40
2019-05-22T06:43:59.052Z,60.90
2019-05-22T06:44:58.949Z,62.30
2019-05-22T06:45:58.938Z,60.80
2019-05-22T06:46:58.945Z,65.30
2019-05-22T06:47:58.918Z,58.50
2019-05-22T06:48:58.956Z,65.60
2019-05-22T06:49:58.899Z,65.10
2019-05-22T06:50:58.883Z,63.10
2019-05-22T06:51:58.873Z,63.90
2019-05-22T06:53:09.295Z,68.60
2019-05-22T06:53:59.900Z,63.30
2019-05-22T06:54:58.848Z,69.10
2019-05-22T06:55:58.827Z,64.30
2019-05-22T06:56:58.820Z,67.20
2019-05-22T06:57:58.809Z,69.70
2019-05-22T06:58:58.804Z,68.80
2019-05-22T07:00:12.514Z,59.60
2019-05-22T07:00:59.773Z,65.00
2019-05-22T07:02:01.431Z,62.50
2019-05-22T07:02:58.756Z,65.40
2019-05-22T07:03:58.759Z,52.00
2019-05-22T07:04:58.808Z,58.90
2019-05-22T07:05:58.719Z,58.60
2019-05-22T07:06:58.738Z,57.60
2019-05-22T07:07:58.699Z,56.30
2019-05-22T07:08:58.697Z,53.20
2019-05-22T07:09:58.709Z,56.60
2019-05-22T07:10:58.672Z,56.90
2019-05-22T07:11:58.685Z,56.80
2019-05-22T07:12:58.646Z,55.40
2019-05-22T07:13:58.638Z,57.60
2019-05-22T07:14:58.640Z,56.20
2019-05-22T07:15:58.614Z,50.50
2019-05-22T07:16:58.596Z,52.60
2019-05-22T07:17:58.588Z,57.70
2019-05-22T07:18:58.599Z,60.50
2019-05-22T07:19:58.601Z,54.60
2019-05-22T07:20:58.563Z,54.30
2019-05-22T07:21:58.560Z,53.50
2019-05-22T07:22:58.529Z,52.60
2019-05-22T07:23:58.547Z,54.20
2019-05-22T07:24:58.564Z,52.10
2019-05-22T07:25:58.503Z,47.70
2019-05-22T07:26:58.494Z,49.50
2019-05-22T07:27:58.491Z,49.60
2019-05-22T07:29:00.877Z,48.80
2019-05-22T07:29:59.478Z,48.70
2019-05-22T07:30:58.443Z,47.50
2019-05-22T07:32:01.959Z,49.80
2019-05-22T07:32:58.424Z,47.60
2019-05-22T07:33:58.410Z,51.30
2019-05-22T07:34:58.437Z,46.10
2019-05-22T07:36:09.915Z,47.00
2019-05-22T07:36:59.372Z,45.50
2019-05-22T07:37:58.369Z,40.60
2019-05-22T07:38:58.355Z,40.80
2019-05-22T07:39:58.376Z,44.20
2019-05-22T07:40:58.456Z,44.80
2019-05-22T07:41:58.326Z,47.20
2019-05-22T07:42:58.308Z,45.40
2019-05-22T07:43:58.363Z,44.70
2019-05-22T07:44:58.311Z,45.20
2019-05-22T07:45:58.300Z,46.30
2019-05-22T07:46:58.271Z,46.30
2019-05-22T07:47:58.251Z,45.60
2019-05-22T07:48:58.297Z,43.70
2019-05-22T07:49:58.234Z,44.10
2019-05-22T07:50:58.263Z,45.50
2019-05-22T07:52:01.756Z,41.60
2019-05-22T07:52:58.210Z,42.90
2019-05-22T07:53:58.188Z,38.20
2019-05-22T07:54:58.177Z,37.10
2019-05-22T07:55:58.190Z,41.20
2019-05-22T07:56:58.165Z,42.40
2019-05-22T07:57:58.154Z,43.00
2019-05-22T07:58:59.069Z,42.30
2019-05-22T07:59:58.119Z,37.60
2019-05-22T08:00:58.149Z,39.20
2019-05-22T08:01:58.775Z,40.70
2019-05-22T08:02:58.098Z,37.90
2019-05-22T08:03:58.778Z,41.20
2019-05-22T08:04:58.075Z,38.30
2019-05-22T08:05:58.444Z,41.00
2019-05-22T08:06:58.162Z,41.80
2019-05-22T08:07:58.052Z,37.50
2019-05-22T08:08:58.023Z,35.10
2019-05-22T08:09:58.018Z,34.50
2019-05-22T08:10:58.038Z,37.20
2019-05-22T08:11:58.034Z,35.60
2019-05-22T08:12:58.099Z,36.80
2019-05-22T08:13:57.968Z,36.00
2019-05-22T08:14:57.955Z,34.00
2019-05-22T08:15:58.026Z,34.00
2019-05-22T08:16:57.974Z,32.30
2019-05-22T08:17:57.936Z,33.90
2019-05-22T08:18:57.922Z,34.00
2019-05-22T08:19:57.905Z,34.80
2019-05-22T08:20:57.960Z,34.20
2019-05-22T08:22:06.688Z,34.00
2019-05-22T08:22:58.887Z,32.70
2019-05-22T08:23:57.908Z,35.50
2019-05-22T08:24:57.866Z,34.40
2019-05-22T08:25:58.058Z,34.10
2019-05-22T08:26:57.907Z,32.50
2019-05-22T08:27:57.873Z,34.30
2019-05-22T08:28:57.813Z,34.00
2019-05-22T08:29:57.797Z,33.40
2019-05-22T08:30:57.816Z,34.40
2019-05-22T08:31:57.798Z,34.40
2019-05-22T08:32:57.788Z,35.10
2019-05-22T08:33:57.765Z,34.20
2019-05-22T08:34:57.786Z,33.80
2019-05-22T08:35:57.726Z,33.40
2019-05-22T08:36:57.738Z,33.60
2019-05-22T08:37:57.707Z,34.20
2019-05-22T08:38:57.696Z,32.20
2019-05-22T08:39:57.684Z,33.10
2019-05-22T08:40:57.727Z,32.70
2019-05-22T08:41:57.690Z,32.00
2019-05-22T08:42:57.666Z,32.70
2019-05-22T08:44:15.104Z,32.30
2019-05-22T08:44:58.627Z,32.10
2019-05-22T08:45:57.624Z,32.50
2019-05-22T08:46:57.630Z,32.80
2019-05-22T08:47:57.603Z,32.20
2019-05-22T08:48:57.618Z,30.00
2019-05-22T08:49:57.596Z,31.90
2019-05-22T08:50:57.600Z,32.70
2019-05-22T08:51:57.589Z,32.50
2019-05-22T08:52:57.549Z,30.50
2019-05-22T08:53:57.544Z,31.20
2019-05-22T08:54:57.520Z,29.60
2019-05-22T08:55:57.514Z,31.40
2019-05-22T08:56:57.537Z,30.50
2019-05-22T08:57:57.496Z,31.20
2019-05-22T08:58:57.483Z,30.10
2019-05-22T08:59:57.465Z,31.40
2019-05-22T09:00:57.457Z,31.30
2019-05-22T09:01:57.472Z,30.30
2019-05-22T09:02:57.554Z,30.10
2019-05-22T09:03:57.466Z,30.60
2019-05-22T09:04:57.418Z,31.10
2019-05-22T09:05:57.728Z,30.70
2019-05-22T09:06:57.411Z,32.10
2019-05-22T09:07:57.375Z,28.90
2019-05-22T09:08:57.365Z,31.40
2019-05-22T09:09:57.351Z,29.30
2019-05-22T09:10:57.357Z,28.80
2019-05-22T09:11:57.392Z,29.00
2019-05-22T09:12:57.328Z,29.70
2019-05-22T09:13:57.312Z,29.20
2019-05-22T09:14:57.308Z,29.00
2019-05-22T09:16:01.533Z,28.80
2019-05-22T09:16:57.300Z,28.30
2019-05-22T09:17:57.266Z,29.00
2019-05-22T09:18:57.279Z,30.70
2019-05-22T09:19:57.256Z,29.30
2019-05-22T09:20:57.234Z,29.70
2019-05-22T09:21:57.270Z,30.10
2019-05-22T09:22:57.231Z,30.10
2019-05-22T09:23:57.206Z,31.20
2019-05-22T09:24:57.214Z,31.80
2019-05-22T09:25:57.195Z,34.00
2019-05-22T09:26:57.174Z,32.30
2019-05-22T09:27:57.198Z,33.30
2019-05-22T09:28:57.151Z,32.60
2019-05-22T09:29:57.148Z,33.60
2019-05-22T09:30:57.124Z,32.90
2019-05-22T09:31:57.159Z,31.70
2019-05-22T09:32:57.123Z,31.30
2019-05-22T09:33:57.093Z,30.60
2019-05-22T09:34:57.078Z,30.80
2019-05-22T09:35:57.082Z,29.70
2019-05-22T09:36:57.060Z,29.50
2019-05-22T09:37:57.072Z,29.90
2019-05-22T09:38:57.036Z,30.30
2019-05-22T09:39:57.028Z,31.20
2019-05-22T09:40:57.013Z,36.00
2019-05-22T09:41:57.011Z,38.80
2019-05-22T09:42:57.047Z,38.70
2019-05-22T09:43:56.982Z,37.40
2019-05-22T09:44:56.970Z,35.30
2019-05-22T09:45:56.965Z,34.30
2019-05-22T09:46:56.947Z,32.60
2019-05-22T09:47:56.971Z,30.70
2019-05-22T09:48:56.931Z,29.00
2019-05-22T09:49:56.920Z,25.50
2019-05-22T09:50:56.923Z,26.90
2019-05-22T09:51:56.924Z,26.10
2019-05-22T09:52:58.285Z,24.60
2019-05-22T09:53:56.875Z,25.40
2019-05-22T09:54:56.899Z,23.60
2019-05-22T09:55:56.871Z,23.90
2019-05-22T09:56:56.843Z,26.00
2019-05-22T09:57:56.856Z,24.50
2019-05-22T09:58:56.833Z,25.20
2019-05-22T09:59:56.818Z,24.20
2019-05-22T10:00:56.802Z,25.30
2019-05-22T10:01:56.787Z,25.40
2019-05-22T10:02:56.806Z,25.30
2019-05-22T10:03:56.763Z,25.10
2019-05-22T10:04:56.754Z,27.00
2019-05-22T10:05:56.882Z,25.10
2019-05-22T10:06:56.753Z,25.10
2019-05-22T10:08:00.952Z,25.40
2019-05-22T10:08:56.717Z,25.00
2019-05-22T10:09:56.725Z,25.90
2019-05-22T10:10:56.691Z,25.60
2019-05-22T10:11:56.677Z,24.90
2019-05-22T10:12:56.718Z,26.60
2019-05-22T10:13:56.658Z,25.20
2019-05-22T10:14:56.996Z,24.50
2019-05-22T10:15:56.669Z,25.90
2019-05-22T10:16:56.650Z,24.40
2019-05-22T10:17:56.753Z,24.90
2019-05-22T10:18:56.624Z,24.40
2019-05-22T10:19:56.660Z,25.40
2019-05-22T10:20:56.605Z,24.20
2019-05-22T10:21:56.570Z,24.00
2019-05-22T10:23:05.980Z,24.70
2019-05-22T10:23:57.572Z,24.30
2019-05-22T10:25:14.060Z,24.30
2019-05-22T10:25:57.525Z,24.30
2019-05-22T10:26:56.521Z,25.80
2019-05-22T10:27:59.236Z,25.30
2019-05-22T10:28:56.543Z,25.20
2019-05-22T10:29:56.482Z,24.60
2019-05-22T10:30:57.467Z,24.70
2019-05-22T10:31:56.463Z,25.10
2019-05-22T10:32:56.458Z,24.10
2019-05-22T10:33:56.469Z,25.70
2019-05-22T10:34:57.836Z,23.30
2019-05-22T10:35:56.420Z,22.80
2019-05-22T10:36:56.404Z,24.00
2019-05-22T10:37:56.393Z,24.00
2019-05-22T10:38:56.408Z,24.80
2019-05-22T10:39:56.375Z,24.50
2019-05-22T10:40:59.246Z,25.80
2019-05-22T10:41:56.359Z,25.10
2019-05-22T10:42:56.350Z,25.90
2019-05-22T10:43:56.351Z,26.30
2019-05-22T10:44:56.321Z,26.50
2019-05-22T10:45:56.306Z,25.80
2019-05-22T10:46:56.297Z,24.80
2019-05-22T10:47:56.292Z,25.30
2019-05-22T10:48:56.301Z,25.10
2019-05-22T10:49:56.264Z,24.40
2019-05-22T10:50:56.251Z,24.30
2019-05-22T10:51:56.248Z,22.80
2019-05-22T10:52:56.230Z,22.70
2019-05-22T10:53:56.256Z,24.40
2019-05-22T10:54:56.232Z,23.40
2019-05-22T10:55:56.201Z,25.00
2019-05-22T10:56:56.186Z,25.50
2019-05-22T10:57:56.177Z,26.80
2019-05-22T10:58:56.194Z,24.40
2019-05-22T10:59:56.154Z,24.50
2019-05-22T11:00:56.142Z,26.00
2019-05-22T11:01:56.138Z,24.00
2019-05-22T11:02:56.141Z,25.60
2019-05-22T11:03:56.242Z,25.50
2019-05-22T11:04:56.103Z,23.90
2019-05-22T11:06:06.586Z,25.00
2019-05-22T11:06:57.130Z,25.50
2019-05-22T11:07:56.070Z,25.20
2019-05-22T11:08:56.090Z,25.40
2019-05-22T11:09:56.047Z,26.30
2019-05-22T11:10:56.044Z,25.70
2019-05-22T11:11:56.042Z,25.60
2019-05-22T11:12:56.018Z,25.50
2019-05-22T11:14:01.180Z,25.00
2019-05-22T11:14:56.994Z,26.50
2019-05-22T11:15:55.992Z,25.20
2019-05-22T11:16:55.972Z,25.00
2019-05-22T11:17:55.963Z,26.80
2019-05-22T11:18:56.005Z,25.00
2019-05-22T11:19:55.962Z,24.90
2019-05-22T11:20:55.932Z,23.00
2019-05-22T11:21:57.142Z,23.70
2019-05-22T11:22:55.911Z,24.90
2019-05-22T11:23:55.901Z,25.50
2019-05-22T11:24:55.912Z,24.90
2019-05-22T11:25:55.879Z,24.20
2019-05-22T11:26:55.868Z,25.30
2019-05-22T11:27:55.943Z,24.80
2019-05-22T11:28:56.163Z,25.70
2019-05-22T11:29:55.865Z,24.30
2019-05-22T11:30:55.833Z,25.60
2019-05-22T11:31:55.813Z,25.10
2019-05-22T11:32:55.806Z,24.90
2019-05-22T11:33:55.795Z,22.90
2019-05-22T11:34:55.827Z,23.50
2019-05-22T11:35:55.773Z,23.90
2019-05-22T11:36:55.859Z,22.30
2019-05-22T11:37:55.757Z,24.40
2019-05-22T11:38:55.741Z,23.70
2019-05-22T11:39:55.760Z,23.20
2019-05-22T11:40:55.720Z,24.50
2019-05-22T11:41:55.707Z,24.80
2019-05-22T11:42:55.696Z,23.80
2019-05-22T11:43:55.953Z,23.30
2019-05-22T11:44:55.701Z,23.00
2019-05-22T11:45:55.783Z,23.80
2019-05-22T11:46:55.658Z,22.90
2019-05-22T11:47:55.669Z,24.70
2019-05-22T11:48:55.632Z,22.40
2019-05-22T11:49:55.886Z,22.40
2019-05-22T11:50:55.611Z,23.60
2019-05-22T11:51:55.639Z,23.10
2019-05-22T11:52:55.589Z,21.90
2019-05-22T11:54:08.803Z,23.50
2019-05-22T11:54:56.603Z,23.30
2019-05-22T11:55:55.588Z,23.20
2019-05-22T11:56:55.644Z,23.40
2019-05-22T11:57:55.535Z,23.60
2019-05-22T11:58:55.525Z,22.70
2019-05-22T11:59:55.595Z,22.20
2019-05-22T12:00:55.508Z,22.90
2019-05-22T12:01:55.493Z,23.00
2019-05-22T12:02:55.483Z,23.70
2019-05-22T12:03:55.481Z,22.80
2019-05-22T12:04:55.601Z,22.20
2019-05-22T12:05:55.451Z,23.30
2019-05-22T12:06:55.436Z,23.20
2019-05-22T12:07:55.426Z,21.60
2019-05-22T12:08:55.419Z,22.30
2019-05-22T12:09:55.462Z,22.50
2019-05-22T12:10:55.401Z,23.10
2019-05-22T12:11:55.384Z,22.70
2019-05-22T12:12:55.376Z,20.70
2019-05-22T12:13:55.361Z,19.70
2019-05-22T12:14:55.387Z,19.60
2019-05-22T12:15:55.346Z,20.20
2019-05-22T12:16:55.341Z,20.40
2019-05-22T12:17:55.319Z,21.50
2019-05-22T12:18:58.479Z,20.60
2019-05-22T12:19:55.300Z,20.80
2019-05-22T12:20:55.332Z,22.00
2019-05-22T12:21:55.269Z,22.30
2019-05-22T12:22:55.266Z,20.90
2019-05-22T12:23:55.251Z,21.60
2019-05-22T12:24:55.236Z,21.90
2019-05-22T12:25:55.255Z,22.60
2019-05-22T12:26:55.222Z,22.00
2019-05-22T12:27:55.208Z,21.50
2019-05-22T12:28:55.195Z,21.50
2019-05-22T12:29:55.194Z,19.90
2019-05-22T12:30:55.223Z,21.30
2019-05-22T12:31:55.167Z,20.60
2019-05-22T12:32:55.174Z,21.10
2019-05-22T12:33:55.144Z,20.40
2019-05-22T12:34:55.161Z,20.10
2019-05-22T12:35:55.143Z,21.80
2019-05-22T12:36:55.111Z,22.90
2019-05-22T12:37:55.203Z,22.10
2019-05-22T12:38:55.091Z,23.20
2019-05-22T12:39:55.081Z,23.60
2019-05-22T12:40:55.093Z,23.60
2019-05-22T12:41:55.056Z,22.40
2019-05-22T12:42:55.048Z,20.10